Inverness, CA (94937)

8:56 PM PDT on September 04, 2015 (GMT -0700)
Inverness, CA--First Valley | | Change Station
CLOSE
Current Station
Personal Weather Station
Location: Inverness, CA
Elevation: 10 ft
Nearby Weather Stations
Active Advisory: Beach Hazard Statement

Elev 10 ft 38.10 °N, 122.85 °W | Updated 2 seconds ago

Clear
Clear
56.7 °F
Feels Like 56.7 °F
N
1.0
Wind Variable Wind from East
Gusts 2.0 mph

Today
High -- | Low -- °F
--% Chance of Precip.
Yesterday
High -- | Low -- °F
Precip. -- in
6:43 AM 7:36 PM
Waning Gibbous, 53% visible
Pressure 29.86 in
Visibility 10.0 miles
Clouds Clear
Dew Point 53 °F
Humidity 86%
Rainfall in
Snow Depth Not available.
UV 0 out of 12
Pollen 8.30 out of 12
Air Quality Not available.
Flu Activity Not available.
METAR KO69 050335Z AUTO 29007KT 10SM CLR 15/09 A2986 RMK AO1
Pressure 29.86 in
Visibility 10.0 miles
Clouds Clear
Dew Point 53 °F
Humidity 86%
Rainfall in
Snow Depth Not available.
UV 0 out of 12
Pollen 8.30 out of 12
Air Quality Not available.
Flu Activity Not available.
METAR KO69 050335Z AUTO 29007KT 10SM CLR 15/09 A2986 RMK AO1

10-Day Weather Forecast

×

Almanac

Astronomy

Sep. 04, 2015 Rise Set
Actual Time
Civil Twilight
Nautical Twilight
Astronomical Twilight
Moon
Length of Visible Light
Length of Day
Tomorrow will be .
, % of the Moon is Illuminated

Today's Extremes

State Highs State Lows

Community

WunderPhotos

Upload Photos

1,852,408 photos uploaded!

WunderBlogs® & News

Nearby

Air Quality

  Air Quality AQ Index Pollutant
Not available.

Snow Depth

Station Depth Elevation

Earthquake Activity

City Distance Mag. Time & Date
Minimum magnitude displayed is 2.5.

Coastal Water Temperatures

Place Temperature

Stations

Nearby Weather Stations

Station Location Temp. Windchill Dew Point Humidity Wind Precip. Elev Updated Type
                   
Beach Hazard Statement
Statement as of 2:36 PM PDT on September 04, 2015

... Beach hazards statement in effect from Saturday morning
through Monday evening...

* location... all south and southwest facing beaches from Sonoma
County through Monterey County... including Sonoma coast State
Park beaches... Stinson Beach... Muir Beach... Natural Bridges
beach... Santa Cruz boardwalk beach... Twin Lakes Beach... and
Pfeiffer Beach.

* Timing... long period forerunners will move into the region
later today and tonight. Swell will build early Saturday
morning... peaking between 3 and 5 feet... with locally larger
waves through Monday evening.

* Impacts... dangerous rip currents... large shore breaks... and
sneaker waves.

Precautionary/preparedness actions...
a beach hazard statement means the potentially dangerous
conditions may exist on specific beaches. These hazards may
include large shore break... strong rip currents... strong longshore
currents and possibly sneaker waves. All of which could be life
threatening. Be sure to always keep your eyes on the ocean.




Http://www.Weather.Gov/sanfrancisco